Time;durP1;ratioP1;P1;durP2;ratioP2;P2;SDS_P1;SDS_P2;PMS_P1;PMS_P2;Temp;Humidity;BMP_temperature;BMP_pressure;BME280_temperature;BME280_humidity;BME280_pressure;Samples;Min_cycle;Max_cycle;Signal;HPM_P1;HPM_P2
2023/08/13 00:01:24;;;;;;;17.30;3.10;;;16.70;93.30;;;;;;5029576;28;20295;-67
2023/08/13 00:03:50;;;;;;;20.33;2.90;;;16.70;93.30;;;;;;5024299;28;20711;-67
2023/08/13 00:06:15;;;;;;;22.37;4.10;;;16.70;93.60;;;;;;5010613;28;20093;-67
2023/08/13 00:08:42;;;;;;;16.70;3.60;;;16.70;93.30;;;;;;5026620;28;20099;-67
2023/08/13 00:11:09;;;;;;;12.60;2.97;;;16.60;93.60;;;;;;5025069;28;20132;-66
2023/08/13 00:13:35;;;;;;;16.50;3.13;;;16.60;93.30;;;;;;5007522;28;21081;-66
2023/08/13 00:16:01;;;;;;;18.27;3.37;;;16.60;93.30;;;;;;5018499;28;20380;-66
2023/08/13 00:18:28;;;;;;;16.97;3.53;;;16.60;93.30;;;;;;5027285;28;20303;-67
2023/08/13 00:20:53;;;;;;;17.57;3.30;;;16.50;93.40;;;;;;5022215;28;20048;-67
2023/08/13 00:23:19;;;;;;;17.93;3.23;;;16.50;93.60;;;;;;5032314;28;20279;-67
2023/08/13 00:25:45;;;;;;;18.37;3.73;;;16.50;93.50;;;;;;5027925;28;20088;-67
2023/08/13 00:28:10;;;;;;;18.20;3.50;;;16.40;93.80;;;;;;5026501;28;20108;-67
2023/08/13 00:30:36;;;;;;;18.33;3.20;;;16.40;94.20;;;;;;5014975;28;20501;-67
2023/08/13 00:33:02;;;;;;;18.37;3.43;;;16.40;94.00;;;;;;5029736;28;20628;-67
2023/08/13 00:35:28;;;;;;;18.67;3.73;;;16.40;94.00;;;;;;5030570;28;20048;-67
2023/08/13 00:37:53;;;;;;;18.27;3.77;;;16.30;94.20;;;;;;5030867;28;20068;-67
2023/08/13 00:40:19;;;;;;;18.27;4.03;;;16.40;94.80;;;;;;5030645;28;20047;-67
2023/08/13 00:42:45;;;;;;;21.03;4.23;;;16.40;94.40;;;;;;5027516;28;20036;-67
2023/08/13 00:45:10;;;;;;;19.70;3.77;;;16.40;94.90;;;;;;5027181;28;20045;-67
2023/08/13 00:47:37;;;;;;;17.53;4.10;;;16.40;95.70;;;;;;5032097;28;20090;-67
2023/08/13 00:50:04;;;;;;;22.97;4.00;;;16.40;95.30;;;;;;5015488;28;20132;-68
2023/08/13 00:52:30;;;;;;;18.93;4.63;;;16.30;95.00;;;;;;5014508;28;20314;-68
2023/08/13 00:54:56;;;;;;;15.53;3.13;;;16.30;94.90;;;;;;5029970;28;20307;-68
2023/08/13 00:57:23;;;;;;;17.20;3.13;;;16.30;95.00;;;;;;5011569;28;20322;-68
2023/08/13 00:59:50;;;;;;;19.57;3.27;;;16.30;95.50;;;;;;5031749;28;20303;-68
2023/08/13 01:02:17;;;;;;;16.93;4.57;;;16.30;95.90;;;;;;5031860;28;20276;-68
2023/08/13 01:04:43;;;;;;;16.37;3.07;;;16.20;96.10;;;;;;5028513;28;20295;-68
2023/08/13 01:07:22;;;;;;;20.53;3.43;;;16.30;96.50;;;;;;5027274;28;20296;-68
2023/08/13 01:10:09;;;;;;;21.97;4.43;;;16.30;96.50;;;;;;5029915;28;20325;-68
2023/08/13 01:12:40;;;;;;;16.33;3.10;;;16.30;96.40;;;;;;5012392;28;20287;-68
2023/08/13 01:15:28;;;;;;;24.13;3.50;;;16.30;96.20;;;;;;5012102;28;20665;-68
2023/08/13 01:17:56;;;;;;;18.40;3.93;;;16.30;96.30;;;;;;5014319;28;20325;-68
2023/08/13 01:20:34;;;;;;;24.30;4.13;;;16.40;96.90;;;;;;5015108;28;20287;-68
2023/08/13 01:23:00;;;;;;;19.83;3.03;;;16.40;96.60;;;;;;5022918;28;20783;-68
2023/08/13 01:25:26;;;;;;;18.53;2.87;;;16.40;97.10;;;;;;5028987;28;20294;-68
2023/08/13 01:28:03;;;;;;;16.37;3.33;;;16.40;97.80;;;;;;5011418;28;20516;-68
2023/08/13 01:30:39;;;;;;;14.03;3.47;;;16.40;97.90;;;;;;5027512;28;20866;-68
2023/08/13 01:33:07;;;;;;;19.13;2.73;;;16.40;97.90;;;;;;5022573;28;20280;-68
2023/08/13 01:35:34;;;;;;;17.77;2.87;;;16.40;97.40;;;;;;5028180;28;20276;-68
2023/08/13 01:38:01;;;;;;;14.13;3.10;;;16.40;97.50;;;;;;5030965;28;20317;-68
2023/08/13 01:40:28;;;;;;;18.63;3.63;;;16.40;97.00;;;;;;5030027;28;20371;-68
2023/08/13 01:42:54;;;;;;;24.23;3.63;;;16.40;97.20;;;;;;5030970;28;20283;-68
2023/08/13 01:45:19;;;;;;;17.07;3.57;;;16.40;97.40;;;;;;5008952;28;20966;-68
2023/08/13 01:47:46;;;;;;;18.37;3.27;;;16.40;97.70;;;;;;5023311;28;20307;-68
2023/08/13 01:50:12;;;;;;;16.37;2.97;;;16.40;98.30;;;;;;5025077;28;20140;-68
2023/08/13 01:52:38;;;;;;;19.00;3.60;;;16.40;97.70;;;;;;5019177;28;20284;-68
2023/08/13 01:55:05;;;;;;;21.67;3.57;;;16.40;97.70;;;;;;5026641;28;20276;-68
2023/08/13 01:57:31;;;;;;;22.30;3.67;;;16.40;97.90;;;;;;5011448;28;20051;-68
2023/08/13 01:59:57;;;;;;;16.93;3.47;;;16.40;98.20;;;;;;5027482;28;20839;-68
2023/08/13 02:02:22;;;;;;;16.23;3.30;;;16.40;97.90;;;;;;5026205;28;20284;-68
2023/08/13 02:04:48;;;;;;;16.80;3.63;;;16.30;97.50;;;;;;5012878;28;20516;-68
2023/08/13 02:07:14;;;;;;;24.40;3.87;;;16.30;97.50;;;;;;5026821;28;20412;-68
2023/08/13 02:09:39;;;;;;;18.47;2.97;;;16.30;97.50;;;;;;5029874;28;20048;-68
2023/08/13 02:12:05;;;;;;;16.67;2.70;;;16.30;97.50;;;;;;5029327;28;20091;-68
2023/08/13 02:14:31;;;;;;;15.73;3.17;;;16.30;97.50;;;;;;5024608;28;20075;-68
2023/08/13 02:16:58;;;;;;;19.90;3.80;;;16.20;97.80;;;;;;5026385;28;20369;-68
2023/08/13 02:19:24;;;;;;;16.63;3.60;;;16.20;98.20;;;;;;5027601;28;20045;-68
2023/08/13 02:21:50;;;;;;;18.10;3.70;;;16.20;98.00;;;;;;5029507;28;20287;-68
2023/08/13 02:24:16;;;;;;;18.67;3.30;;;16.20;98.00;;;;;;5019242;28;20666;-68
2023/08/13 02:26:41;;;;;;;13.47;3.10;;;16.20;98.20;;;;;;5030961;28;20033;-68
2023/08/13 02:29:07;;;;;;;19.40;3.87;;;16.10;98.30;;;;;;5012719;28;20036;-68
2023/08/13 02:31:33;;;;;;;20.10;3.20;;;16.10;98.40;;;;;;5028869;28;20075;-68
2023/08/13 02:33:58;;;;;;;21.57;3.47;;;16.10;98.70;;;;;;5026148;28;20091;-68
2023/08/13 02:36:24;;;;;;;20.03;3.63;;;16.10;98.60;;;;;;5030284;28;20099;-68
2023/08/13 02:38:50;;;;;;;22.97;3.93;;;16.10;98.40;;;;;;5026039;28;20044;-68
2023/08/13 02:41:15;;;;;;;23.73;4.10;;;16.10;98.30;;;;;;5022374;28;20037;-68
2023/08/13 02:43:52;;;;;;;22.37;3.90;;;16.10;98.60;;;;;;5021903;28;20508;-68
2023/08/13 02:46:22;;;;;;;18.63;3.03;;;16.10;98.90;;;;;;5021181;28;20032;-68
2023/08/13 02:48:48;;;;;;;22.10;3.47;;;16.10;99.00;;;;;;5030252;28;20287;-68
2023/08/13 02:51:14;;;;;;;20.70;3.67;;;16.10;98.80;;;;;;5019731;28;20283;-68
2023/08/13 02:53:43;;;;;;;15.17;3.80;;;16.10;98.80;;;;;;5023180;28;20306;-68
2023/08/13 02:56:10;;;;;;;22.00;3.67;;;16.10;98.80;;;;;;5025206;28;20631;-68
2023/08/13 02:58:35;;;;;;;18.53;3.70;;;16.10;99.10;;;;;;5030057;28;20318;-68
2023/08/13 03:01:02;;;;;;;19.47;4.57;;;16.10;99.20;;;;;;5030125;28;20643;-68
2023/08/13 03:03:27;;;;;;;15.57;3.03;;;16.10;99.40;;;;;;5026494;28;20084;-68
2023/08/13 03:05:53;;;;;;;16.50;3.53;;;16.20;99.70;;;;;;5007310;28;20393;-68
2023/08/13 03:08:19;;;;;;;20.60;3.63;;;16.20;99.90;;;;;;5010509;28;20064;-68
2023/08/13 03:10:45;;;;;;;16.13;3.30;;;16.30;99.90;;;;;;5027304;28;20412;-68
2023/08/13 03:13:11;;;;;;;21.80;3.77;;;16.40;99.80;;;;;;5029875;28;20040;-68
2023/08/13 03:15:36;;;;;;;20.07;4.13;;;16.50;99.90;;;;;;5029907;28;20467;-68
2023/08/13 03:18:02;;;;;;;18.00;3.80;;;16.60;99.90;;;;;;5019986;28;20069;-68
2023/08/13 03:20:28;;;;;;;15.50;3.10;;;16.70;99.70;;;;;;5026319;28;20083;-68
2023/08/13 03:22:53;;;;;;;23.13;3.67;;;16.70;99.70;;;;;;5023424;28;20037;-68
2023/08/13 03:25:19;;;;;;;22.30;3.63;;;16.80;99.50;;;;;;5008194;28;20115;-68
2023/08/13 03:27:47;;;;;;;17.57;3.30;;;16.80;99.40;;;;;;5026413;28;20041;-68
2023/08/13 03:30:13;;;;;;;17.13;3.20;;;16.90;99.30;;;;;;5027438;28;20049;-68
2023/08/13 03:32:39;;;;;;;18.53;3.50;;;16.90;99.30;;;;;;5029187;28;20283;-68
2023/08/13 03:35:05;;;;;;;16.37;2.93;;;16.90;99.30;;;;;;5031586;28;20049;-68
2023/08/13 03:37:31;;;;;;;21.93;3.33;;;17.00;99.30;;;;;;5011333;28;20041;-68
2023/08/13 03:39:57;;;;;;;20.23;3.77;;;17.00;99.20;;;;;;5012099;28;20271;-68
2023/08/13 03:42:22;;;;;;;21.50;3.40;;;17.10;99.40;;;;;;5021383;28;20049;-68
2023/08/13 03:44:48;;;;;;;18.87;3.60;;;17.10;99.10;;;;;;5031499;28;20044;-68
2023/08/13 03:47:14;;;;;;;21.10;3.20;;;17.10;99.10;;;;;;5026946;28;20040;-68
2023/08/13 03:49:40;;;;;;;18.10;3.30;;;17.10;99.00;;;;;;5016523;28;20041;-68
2023/08/13 03:52:05;;;;;;;23.63;3.70;;;17.10;99.00;;;;;;5033095;28;20467;-68
2023/08/13 03:54:31;;;;;;;22.87;3.63;;;17.20;99.00;;;;;;5015649;28;20037;-68
2023/08/13 03:56:57;;;;;;;19.23;3.33;;;17.20;98.90;;;;;;5012805;28;20094;-68
2023/08/13 03:59:23;;;;;;;14.13;3.37;;;17.20;98.80;;;;;;5032067;28;20037;-68
2023/08/13 04:01:49;;;;;;;20.43;3.60;;;17.20;98.80;;;;;;5029528;28;20268;-68
2023/08/13 04:04:15;;;;;;;17.40;3.47;;;17.20;98.70;;;;;;5031544;28;20439;-68
2023/08/13 04:06:42;;;;;;;17.30;3.53;;;17.20;98.50;;;;;;5021202;28;20030;-68
2023/08/13 04:09:08;;;;;;;19.03;3.17;;;17.20;98.50;;;;;;5027290;28;20055;-68
2023/08/13 04:11:34;;;;;;;18.33;3.30;;;17.20;98.40;;;;;;5007974;28;20826;-68
2023/08/13 04:14:00;;;;;;;18.00;3.30;;;17.20;98.30;;;;;;5025292;28;20049;-68
2023/08/13 04:16:25;;;;;;;16.07;2.63;;;17.20;98.20;;;;;;5032443;28;20760;-68
2023/08/13 04:18:51;;;;;;;17.03;2.90;;;17.20;98.10;;;;;;5031793;28;20056;-68
2023/08/13 04:21:17;;;;;;;20.33;3.30;;;17.20;98.20;;;;;;5028446;28;20116;-68
2023/08/13 04:23:43;;;;;;;15.03;2.77;;;17.20;98.20;;;;;;5031073;28;20040;-68
2023/08/13 04:26:08;;;;;;;16.60;2.83;;;17.20;98.10;;;;;;5028517;28;20919;-68
2023/08/13 04:28:34;;;;;;;17.47;3.07;;;17.20;97.90;;;;;;5027738;28;20444;-69
2023/08/13 04:31:00;;;;;;;19.50;3.43;;;17.20;97.80;;;;;;5029670;28;20408;-69
2023/08/13 04:33:25;;;;;;;15.83;3.40;;;17.30;97.80;;;;;;5046778;28;20045;-68
2023/08/13 04:35:53;;;;;;;24.53;2.70;;;17.30;97.70;;;;;;5020341;28;20745;-68
2023/08/13 04:38:19;;;;;;;24.87;4.20;;;17.30;97.60;;;;;;5032148;28;20083;-68
2023/08/13 04:40:49;;;;;;;20.63;3.40;;;17.30;97.50;;;;;;5031562;28;20293;-68
2023/08/13 04:43:15;;;;;;;16.17;3.17;;;17.30;97.40;;;;;;5024471;28;20287;-68
2023/08/13 04:45:47;;;;;;;22.13;2.73;;;17.30;97.30;;;;;;5015843;28;20382;-68
2023/08/13 04:48:18;;;;;;;26.37;4.13;;;17.30;97.30;;;;;;5032764;28;20474;-68
2023/08/13 04:50:44;;;;;;;17.00;3.53;;;17.40;97.40;;;;;;5024070;28;20296;-68
2023/08/13 04:53:09;;;;;;;18.63;3.20;;;17.40;97.40;;;;;;5029545;28;20371;-68
2023/08/13 04:55:35;;;;;;;13.73;2.40;;;17.40;97.40;;;;;;5011656;28;20091;-68
2023/08/13 04:58:01;;;;;;;12.53;2.43;;;17.40;97.50;;;;;;5031697;28;20045;-68
2023/08/13 05:00:26;;;;;;;15.93;3.43;;;17.50;97.30;;;;;;5032287;28;20037;-68
2023/08/13 05:02:52;;;;;;;19.23;3.20;;;17.50;97.30;;;;;;5030623;28;20221;-68
2023/08/13 05:05:18;;;;;;;17.07;2.37;;;17.60;97.10;;;;;;5003843;28;20076;-68
2023/08/13 05:07:44;;;;;;;13.57;2.57;;;17.60;97.00;;;;;;5015371;28;20132;-68
2023/08/13 05:10:10;;;;;;;12.80;2.83;;;17.70;97.00;;;;;;5022448;28;20448;-69
2023/08/13 05:12:36;;;;;;;12.50;3.27;;;17.70;97.20;;;;;;5014818;28;20291;-69
2023/08/13 05:15:03;;;;;;;15.13;2.97;;;17.70;97.00;;;;;;5031372;28;20045;-69
2023/08/13 05:17:28;;;;;;;10.97;2.43;;;17.70;97.00;;;;;;5023149;28;20040;-68
2023/08/13 05:19:54;;;;;;;15.47;2.50;;;17.70;97.10;;;;;;5031734;28;20318;-68
2023/08/13 05:22:20;;;;;;;13.33;2.47;;;17.70;97.00;;;;;;5028773;28;20045;-68
2023/08/13 05:24:47;;;;;;;13.73;2.50;;;17.70;97.00;;;;;;5029239;28;20048;-68
2023/08/13 05:27:12;;;;;;;16.53;3.37;;;17.70;97.20;;;;;;5014017;28;20044;-68
2023/08/13 05:29:38;;;;;;;11.50;2.70;;;17.70;97.00;;;;;;5029052;28;20036;-68
2023/08/13 05:32:05;;;;;;;16.37;2.90;;;17.70;97.00;;;;;;5031273;28;20052;-68
2023/08/13 05:34:31;;;;;;;11.93;2.30;;;17.70;97.10;;;;;;5031470;28;20037;-68
2023/08/13 05:36:56;;;;;;;13.17;2.53;;;17.70;96.90;;;;;;5030646;28;20048;-68
2023/08/13 05:39:23;;;;;;;16.20;3.07;;;17.70;96.90;;;;;;5009690;28;20029;-68
2023/08/13 05:41:49;;;;;;;10.20;2.47;;;17.60;96.90;;;;;;5027099;28;20041;-68
2023/08/13 05:44:15;;;;;;;13.70;2.70;;;17.60;96.80;;;;;;5020130;28;20033;-68
2023/08/13 05:46:40;;;;;;;11.03;2.60;;;17.60;96.80;;;;;;5014475;28;20033;-68
2023/08/13 05:49:06;;;;;;;17.10;2.43;;;17.60;96.50;;;;;;5028841;28;20037;-68
2023/08/13 05:51:32;;;;;;;15.50;2.93;;;17.60;96.40;;;;;;5030780;28;20041;-68
2023/08/13 05:53:57;;;;;;;15.60;2.90;;;17.60;96.60;;;;;;5014654;28;20041;-68
2023/08/13 05:56:23;;;;;;;15.83;2.50;;;17.70;96.50;;;;;;5029887;28;20072;-68
2023/08/13 05:58:49;;;;;;;14.87;2.57;;;17.90;96.50;;;;;;5030055;28;20044;-68
2023/08/13 06:01:14;;;;;;;14.23;2.83;;;18.10;95.80;;;;;;5031047;28;20041;-68
2023/08/13 06:03:40;;;;;;;13.07;2.30;;;18.20;95.10;;;;;;5030797;28;20480;-68
2023/08/13 06:06:06;;;;;;;12.13;2.20;;;18.30;94.70;;;;;;5027612;28;20440;-68
2023/08/13 06:08:31;;;;;;;17.23;2.83;;;18.30;94.20;;;;;;5028181;28;20103;-68
2023/08/13 06:10:57;;;;;;;12.07;2.83;;;18.30;93.60;;;;;;5013016;28;20144;-68
2023/08/13 06:13:23;;;;;;;17.23;2.50;;;18.40;93.90;;;;;;5012648;28;20582;-68
2023/08/13 06:15:48;;;;;;;11.43;2.03;;;18.40;93.70;;;;;;5030555;28;20045;-68
2023/08/13 06:18:14;;;;;;;12.90;1.97;;;18.50;93.40;;;;;;5016355;28;20075;-68
2023/08/13 06:20:40;;;;;;;14.70;2.77;;;18.50;93.30;;;;;;5029913;28;20103;-69
2023/08/13 06:23:05;;;;;;;10.47;2.33;;;18.50;93.00;;;;;;5030521;28;20069;-69
2023/08/13 06:25:31;;;;;;;14.40;2.30;;;18.50;92.90;;;;;;5028482;28;20079;-69
2023/08/13 06:27:57;;;;;;;13.93;2.90;;;18.40;92.80;;;;;;5010683;28;20041;-69
2023/08/13 06:30:24;;;;;;;15.17;2.37;;;18.40;92.70;;;;;;5019990;28;20053;-69
2023/08/13 06:32:49;;;;;;;10.83;2.27;;;18.40;92.50;;;;;;5024190;28;20186;-69
2023/08/13 06:35:15;;;;;;;14.73;2.60;;;18.40;92.60;;;;;;5030130;28;20036;-69
2023/08/13 06:37:41;;;;;;;12.87;3.00;;;18.50;92.60;;;;;;5009427;28;20476;-68
2023/08/13 06:40:08;;;;;;;11.47;2.90;;;18.50;93.00;;;;;;5027909;28;20040;-68
2023/08/13 06:42:33;;;;;;;12.53;3.50;;;18.60;93.00;;;;;;5030397;28;20120;-68
2023/08/13 06:44:59;;;;;;;11.47;3.00;;;18.70;92.40;;;;;;5026595;28;20466;-68
2023/08/13 06:47:25;;;;;;;9.43;2.50;;;18.70;92.30;;;;;;5030368;28;20047;-68
2023/08/13 06:49:50;;;;;;;13.43;3.33;;;18.80;92.40;;;;;;5030603;28;20045;-68
2023/08/13 06:52:16;;;;;;;9.13;2.50;;;18.80;92.40;;;;;;5013825;28;20117;-68
2023/08/13 06:54:42;;;;;;;10.03;2.33;;;18.80;92.20;;;;;;5041999;28;20045;-68
2023/08/13 06:57:08;;;;;;;13.17;2.70;;;18.90;92.10;;;;;;5030263;28;20045;-68
2023/08/13 06:59:34;;;;;;;11.87;3.43;;;19.00;92.00;;;;;;5007442;28;20102;-68
2023/08/13 07:01:59;;;;;;;9.63;2.40;;;19.00;91.40;;;;;;5029549;28;20041;-68
2023/08/13 07:04:25;;;;;;;11.77;2.70;;;19.10;91.50;;;;;;5027767;28;20065;-68
2023/08/13 07:06:51;;;;;;;13.77;3.20;;;19.30;91.80;;;;;;5019266;28;20120;-68
2023/08/13 07:09:17;;;;;;;10.33;2.53;;;19.50;90.50;;;;;;5028892;28;20080;-68
2023/08/13 07:11:43;;;;;;;11.43;2.50;;;19.70;89.70;;;;;;5007045;28;20135;-68
2023/08/13 07:14:08;;;;;;;9.50;3.23;;;19.80;89.40;;;;;;4993227;28;20041;-68
2023/08/13 07:16:35;;;;;;;7.73;2.40;;;19.90;88.50;;;;;;4985303;28;20045;-68
2023/08/13 07:19:00;;;;;;;9.47;2.77;;;19.90;88.40;;;;;;5012727;28;20041;-69
2023/08/13 07:21:26;;;;;;;11.90;2.40;;;20.00;88.00;;;;;;5014245;28;20091;-69
2023/08/13 07:23:52;;;;;;;11.77;2.70;;;20.00;87.40;;;;;;5012218;28;20033;-69
2023/08/13 07:26:18;;;;;;;11.23;2.07;;;19.90;85.70;;;;;;5013681;28;20160;-69
2023/08/13 07:28:44;;;;;;;12.77;2.20;;;19.90;86.00;;;;;;5001928;28;20051;-69
2023/08/13 07:31:10;;;;;;;10.97;2.07;;;19.80;85.00;;;;;;5014262;28;20034;-69
2023/08/13 07:33:36;;;;;;;8.17;2.20;;;19.80;85.40;;;;;;4995050;28;20496;-68
2023/08/13 07:36:03;;;;;;;9.27;2.20;;;19.80;84.70;;;;;;5014094;28;20049;-68
2023/08/13 07:38:29;;;;;;;9.40;2.40;;;19.70;85.50;;;;;;5013651;28;20096;-68
2023/08/13 07:40:56;;;;;;;6.93;2.10;;;19.80;85.00;;;;;;4996609;28;20065;-68
2023/08/13 07:43:24;;;;;;;9.23;2.33;;;19.90;85.60;;;;;;4995014;28;20516;-68
2023/08/13 07:45:50;;;;;;;9.17;2.13;;;20.10;86.10;;;;;;4999268;28;20037;-68
2023/08/13 07:48:17;;;;;;;7.53;2.23;;;20.30;85.10;;;;;;5015189;28;20111;-68
2023/08/13 07:50:43;;;;;;;12.13;2.50;;;20.50;85.40;;;;;;5013033;28;20159;-68
2023/08/13 07:53:09;;;;;;;11.37;2.77;;;20.60;84.30;;;;;;4999974;28;20494;-68
2023/08/13 07:55:35;;;;;;;6.77;2.07;;;20.70;83.50;;;;;;5002198;28;20044;-68
2023/08/13 07:58:00;;;;;;;9.03;2.77;;;20.70;82.70;;;;;;4996648;28;20041;-68
2023/08/13 08:00:26;;;;;;;8.60;2.47;;;20.80;83.30;;;;;;5012835;28;20045;-68
2023/08/13 08:02:53;;;;;;;10.07;3.30;;;20.80;82.70;;;;;;5004124;28;20092;-68
2023/08/13 08:05:22;;;;;;;9.83;2.17;;;20.80;82.00;;;;;;5017504;28;20059;-69
2023/08/13 08:07:48;;;;;;;13.27;3.50;;;20.80;82.60;;;;;;5017946;28;20045;-68
2023/08/13 08:10:14;;;;;;;9.07;2.70;;;20.80;83.00;;;;;;5021366;28;20037;-69
2023/08/13 08:12:40;;;;;;;10.47;2.10;;;20.90;82.90;;;;;;5024061;28;20071;-69
2023/08/13 08:15:06;;;;;;;8.47;2.57;;;21.00;82.40;;;;;;5033407;28;20037;-70
2023/08/13 08:17:33;;;;;;;8.97;2.47;;;21.00;81.50;;;;;;5018141;28;20545;-70
2023/08/13 08:20:00;;;;;;;7.47;2.07;;;21.00;78.00;;;;;;5034030;28;20544;-70
2023/08/13 08:22:26;;;;;;;7.87;1.80;;;20.90;79.30;;;;;;5015626;28;20040;-70
2023/08/13 08:24:53;;;;;;;9.23;2.30;;;20.80;79.60;;;;;;5012801;28;20071;-70
2023/08/13 08:27:19;;;;;;;11.73;1.63;;;20.80;80.10;;;;;;5030698;28;20060;-70
2023/08/13 08:29:45;;;;;;;8.30;2.20;;;20.70;79.90;;;;;;5029839;28;20034;-70
2023/08/13 08:32:11;;;;;;;9.33;1.70;;;20.70;79.50;;;;;;5015715;28;20405;-69
2023/08/13 08:34:36;;;;;;;11.73;2.00;;;20.80;79.80;;;;;;5032334;28;20097;-70
2023/08/13 08:37:04;;;;;;;9.70;2.10;;;21.00;79.30;;;;;;5012688;28;20095;-68
2023/08/13 08:39:29;;;;;;;8.57;1.70;;;21.30;79.10;;;;;;5029079;28;20044;-70
2023/08/13 08:41:57;;;;;;;11.60;2.10;;;21.30;76.80;;;;;;5027652;28;20036;-69
2023/08/13 08:44:23;;;;;;;8.87;2.07;;;21.30;77.20;;;;;;5005424;28;20045;-70
2023/08/13 08:46:51;;;;;;;6.83;1.70;;;21.40;77.20;;;;;;5015027;28;20505;-70
2023/08/13 08:49:18;;;;;;;10.87;1.80;;;21.40;77.00;;;;;;5032118;28;20033;-70
2023/08/13 08:51:45;;;;;;;6.30;1.70;;;21.50;77.40;;;;;;5000042;28;20405;-70
2023/08/13 08:54:11;;;;;;;10.37;1.73;;;21.60;76.50;;;;;;5013562;28;20041;-70
2023/08/13 08:56:37;;;;;;;7.97;2.00;;;21.50;76.20;;;;;;5009640;28;20131;-69
2023/08/13 08:59:05;;;;;;;6.63;1.77;;;21.30;76.20;;;;;;5008154;28;20052;-70
2023/08/13 09:01:31;;;;;;;7.77;1.70;;;21.20;76.90;;;;;;5015817;28;20029;-70
2023/08/13 09:03:57;;;;;;;7.83;2.20;;;21.20;78.60;;;;;;5001775;28;20049;-70
2023/08/13 09:06:22;;;;;;;7.77;2.20;;;21.20;78.50;;;;;;5003230;28;20381;-70
2023/08/13 09:08:49;;;;;;;8.67;2.13;;;21.30;78.30;;;;;;5005883;28;20087;-70
2023/08/13 09:11:14;;;;;;;13.97;1.60;;;21.40;78.80;;;;;;5023049;28;20072;-70
2023/08/13 09:13:48;;;;;;;8.40;2.00;;;21.60;78.20;;;;;;5012645;28;20049;-71
2023/08/13 09:16:14;;;;;;;7.15;1.77;;;21.90;77.10;;;;;;4990006;28;20046;-70
2023/08/13 09:18:40;;;;;;;11.17;1.80;;;22.00;76.20;;;;;;5001819;28;20120;-69
2023/08/13 09:21:06;;;;;;;8.97;1.90;;;22.10;75.50;;;;;;5012343;28;20072;-69
2023/08/13 09:23:31;;;;;;;5.87;1.40;;;22.10;75.20;;;;;;5004033;28;20029;-70
2023/08/13 09:26:00;;;;;;;9.50;1.77;;;22.20;75.30;;;;;;4985946;28;20061;-70
2023/08/13 09:28:25;;;;;;;6.03;2.03;;;22.20;74.20;;;;;;4984836;28;20737;-70
2023/08/13 09:30:52;;;;;;;6.10;1.53;;;22.10;74.20;;;;;;4994821;28;20120;-70
2023/08/13 09:33:18;;;;;;;7.23;1.57;;;22.10;74.90;;;;;;5008751;28;20091;-70
2023/08/13 09:35:44;;;;;;;5.87;1.90;;;22.30;74.90;;;;;;5013148;28;20033;-71
2023/08/13 09:38:11;;;;;;;7.93;1.80;;;22.40;75.20;;;;;;4993289;28;20494;-69
2023/08/13 09:40:37;;;;;;;8.23;1.53;;;22.70;74.70;;;;;;4993247;28;20401;-69
2023/08/13 09:43:09;;;;;;;5.73;1.80;;;22.90;74.40;;;;;;5002000;28;20517;-69
2023/08/13 09:45:35;;;;;;;9.13;2.37;;;23.00;74.10;;;;;;4998368;28;20112;-69
2023/08/13 09:48:06;;;;;;;10.70;2.07;;;23.10;73.20;;;;;;5006522;28;20129;-69
2023/08/13 09:50:40;;;;;;;6.47;2.00;;;23.10;71.10;;;;;;4991993;28;20053;-69
2023/08/13 09:53:11;;;;;;;10.88;2.10;;;23.20;72.10;;;;;;5008755;28;20497;-69
2023/08/13 09:55:40;;;;;;;10.33;2.20;;;23.30;72.20;;;;;;5009209;28;20038;-69
2023/08/13 09:58:08;;;;;;;7.20;1.57;;;23.30;71.80;;;;;;4992372;28;20037;-69
2023/08/13 10:00:34;;;;;;;8.73;2.30;;;23.00;72.20;;;;;;5010500;28;20046;-69
2023/08/13 10:03:01;;;;;;;9.67;2.23;;;22.80;71.90;;;;;;5009329;28;20064;-69
2023/08/13 10:05:29;;;;;;;8.97;2.30;;;22.50;72.30;;;;;;5011155;28;20048;-69
2023/08/13 10:07:56;;;;;;;5.67;1.90;;;22.30;73.10;;;;;;5006505;28;20053;-69
2023/08/13 10:10:25;;;;;;;8.53;2.00;;;22.20;73.70;;;;;;5011501;28;20057;-69
2023/08/13 10:12:51;;;;;;;8.37;2.20;;;22.20;73.50;;;;;;5023360;28;20052;-69
2023/08/13 10:15:19;;;;;;;6.20;1.70;;;22.10;73.80;;;;;;5025169;28;20051;-69
2023/08/13 10:17:45;;;;;;;6.97;1.87;;;22.10;73.60;;;;;;5004784;28;20073;-69
2023/08/13 10:20:11;;;;;;;9.17;2.10;;;22.10;73.70;;;;;;5028613;28;20056;-69
2023/08/13 10:22:39;;;;;;;11.70;2.50;;;22.30;73.00;;;;;;5025006;28;20127;-69
2023/08/13 10:25:07;;;;;;;7.23;1.70;;;22.50;72.20;;;;;;5023068;28;20033;-69
2023/08/13 10:27:37;;;;;;;5.93;2.00;;;22.70;72.20;;;;;;5029621;28;20041;-69
2023/08/13 10:30:13;;;;;;;7.57;1.90;;;22.90;71.10;;;;;;5028895;28;20129;-69
2023/08/13 10:33:03;;;;;;;4.90;1.73;;;22.90;70.60;;;;;;5028384;28;20044;-69
2023/08/13 10:35:34;;;;;;;9.40;2.07;;;23.00;69.80;;;;;;5014243;28;20145;-69
2023/08/13 10:38:02;;;;;;;6.63;2.20;;;23.00;70.60;;;;;;5028370;28;20077;-69
2023/08/13 10:40:28;;;;;;;7.67;2.33;;;23.10;70.60;;;;;;5026859;28;20045;-69
2023/08/13 10:42:58;;;;;;;7.93;1.80;;;23.20;70.20;;;;;;5016557;28;20037;-69
2023/08/13 10:45:25;;;;;;;7.40;2.20;;;23.30;69.80;;;;;;5032379;28;20045;-68
2023/08/13 10:48:02;;;;;;;6.23;2.43;;;23.30;68.40;;;;;;5033337;28;20492;-69
2023/08/13 10:50:34;;;;;;;6.70;2.30;;;23.10;68.00;;;;;;5015719;28;20132;-69
2023/08/13 10:53:04;;;;;;;9.90;2.77;;;22.80;69.10;;;;;;5032494;28;20044;-69
2023/08/13 10:55:32;;;;;;;6.87;2.63;;;22.70;69.70;;;;;;5034163;28;20128;-68
2023/08/13 10:57:59;;;;;;;9.53;2.63;;;22.50;70.70;;;;;;5029595;28;20090;-68
2023/08/13 11:00:27;;;;;;;6.73;3.27;;;22.40;70.70;;;;;;5016608;28;20041;-68
2023/08/13 11:02:57;;;;;;;8.23;3.83;;;22.30;71.00;;;;;;5032841;28;20041;-68
2023/08/13 11:05:23;;;;;;;6.27;2.70;;;22.30;71.50;;;;;;5033749;28;20068;-68
2023/08/13 11:07:50;;;;;;;6.17;2.50;;;22.20;71.30;;;;;;5016530;28;20084;-68
2023/08/13 11:10:18;;;;;;;7.97;2.70;;;22.00;70.70;;;;;;5031088;28;20076;-68
2023/08/13 11:12:48;;;;;;;5.37;3.10;;;21.70;71.00;;;;;;4992936;28;20147;-68
2023/08/13 11:15:15;;;;;;;7.73;2.97;;;21.40;73.40;;;;;;4997390;28;20148;-68
2023/08/13 11:17:46;;;;;;;8.03;3.37;;;21.20;74.50;;;;;;5013271;28;21144;-68
2023/08/13 11:20:21;;;;;;;7.37;3.93;;;20.90;76.30;;;;;;5011300;28;20124;-68
2023/08/13 11:22:47;;;;;;;7.73;3.47;;;20.70;78.40;;;;;;5013992;28;20044;-69
2023/08/13 11:25:16;;;;;;;8.23;3.40;;;20.50;79.90;;;;;;4996251;28;20045;-69
2023/08/13 11:27:42;;;;;;;15.03;3.57;;;20.40;80.80;;;;;;5012953;28;20045;-69
2023/08/13 11:30:08;;;;;;;8.87;3.60;;;20.40;80.20;;;;;;5013433;28;20052;-69
2023/08/13 11:32:38;;;;;;;5.87;2.97;;;20.40;81.10;;;;;;4997822;28;20572;-69
2023/08/13 11:35:09;;;;;;;5.47;2.50;;;20.70;81.00;;;;;;5011763;28;20065;-70
2023/08/13 11:37:36;;;;;;;4.47;2.30;;;21.00;80.30;;;;;;5012024;28;20103;-69
2023/08/13 11:40:05;;;;;;;10.70;2.33;;;21.30;79.20;;;;;;5011945;28;20402;-69
2023/08/13 11:42:34;;;;;;;6.57;2.47;;;21.50;78.30;;;;;;5012500;28;20074;-69
2023/08/13 11:45:09;;;;;;;7.57;2.13;;;21.70;76.80;;;;;;4995199;28;20025;-70
2023/08/13 11:47:35;;;;;;;4.70;1.63;;;22.00;76.50;;;;;;4997968;28;20041;-69
2023/08/13 11:50:00;;;;;;;4.67;2.00;;;22.20;74.60;;;;;;5014290;28;20107;-70
2023/08/13 11:52:26;;;;;;;4.93;2.03;;;22.40;73.80;;;;;;4997529;28;20324;-70
2023/08/13 11:54:52;;;;;;;7.43;1.90;;;22.40;72.90;;;;;;5011508;28;20083;-69
2023/08/13 11:57:18;;;;;;;6.40;1.83;;;22.60;73.50;;;;;;5009448;28;20550;-71
2023/08/13 11:59:48;;;;;;;5.63;1.73;;;22.70;72.90;;;;;;5011436;28;20061;-71
2023/08/13 12:02:15;;;;;;;7.47;1.60;;;22.80;71.80;;;;;;5010922;28;20038;-66
2023/08/13 12:04:44;;;;;;;7.63;1.83;;;22.90;70.60;;;;;;5011660;28;20392;-70
2023/08/13 12:07:09;;;;;;;5.37;1.50;;;23.10;70.40;;;;;;5012295;28;20564;-70
2023/08/13 12:09:35;;;;;;;7.53;1.33;;;23.30;70.60;;;;;;4997609;28;20061;-71
2023/08/13 12:12:01;;;;;;;5.63;1.03;;;23.60;70.40;;;;;;5010545;28;20038;-70
2023/08/13 12:14:27;;;;;;;4.27;1.07;;;23.90;70.00;;;;;;5012099;28;20106;-70
2023/08/13 12:16:52;;;;;;;3.13;1.00;;;24.20;67.80;;;;;;5013265;28;20033;-71
2023/08/13 12:19:18;;;;;;;4.60;1.30;;;24.30;64.90;;;;;;5030342;28;20057;-69
2023/08/13 12:21:44;;;;;;;6.20;1.30;;;24.30;65.40;;;;;;4995717;28;20099;-69
2023/08/13 12:24:10;;;;;;;2.10;0.60;;;24.40;64.50;;;;;;5011799;28;20124;-70
2023/08/13 12:26:35;;;;;;;2.27;0.60;;;24.50;64.20;;;;;;5013723;28;20128;-71
2023/08/13 12:29:02;;;;;;;5.67;1.00;;;24.60;64.00;;;;;;5009608;28;20120;-69
2023/08/13 12:31:29;;;;;;;5.23;0.50;;;24.70;63.10;;;;;;5010331;28;20052;-69
2023/08/13 12:33:56;;;;;;;5.10;0.80;;;24.70;63.10;;;;;;5009269;28;20072;-69
2023/08/13 12:36:21;;;;;;;3.23;0.70;;;24.70;63.70;;;;;;5008166;28;20038;-69
2023/08/13 12:38:47;;;;;;;6.20;1.17;;;24.70;63.40;;;;;;5010189;28;20048;-69